createdAt,value
2023-05-05T00:01:08.721Z,16.26
2023-05-05T00:03:35.785Z,16.21
2023-05-05T00:06:03.339Z,16.15
2023-05-05T00:08:30.052Z,16.17
2023-05-05T00:10:57.596Z,16.07
2023-05-05T00:13:24.659Z,16.08
2023-05-05T00:15:52.533Z,16.05
2023-05-05T00:18:19.730Z,16.04
2023-05-05T00:20:47.308Z,16.07
2023-05-05T00:23:14.708Z,16.13
2023-05-05T00:25:41.447Z,16.05
2023-05-05T00:28:08.163Z,16.08
2023-05-05T00:30:34.814Z,16.12
2023-05-05T00:33:01.868Z,16.18
2023-05-05T00:35:28.517Z,16.06
2023-05-05T00:37:55.275Z,16.10
2023-05-05T00:40:22.029Z,16.13
2023-05-05T00:42:52.530Z,16.14
2023-05-05T00:45:20.159Z,16.01
2023-05-05T00:47:49.868Z,16.08
2023-05-05T00:50:23.688Z,16.00
2023-05-05T00:52:52.589Z,15.98
2023-05-05T00:55:19.961Z,15.88
2023-05-05T00:57:47.667Z,15.86
2023-05-05T01:00:14.537Z,15.90
2023-05-05T01:02:41.441Z,15.92
2023-05-05T01:05:10.094Z,15.87
2023-05-05T01:07:58.786Z,15.81
2023-05-05T01:10:48.748Z,15.81
2023-05-05T01:13:27.886Z,15.77
2023-05-05T01:15:54.410Z,15.82
2023-05-05T01:18:27.676Z,15.76
2023-05-05T01:21:16.889Z,15.59
2023-05-05T01:24:05.009Z,15.56
2023-05-05T01:26:49.780Z,15.66
2023-05-05T01:29:55.538Z,15.64
2023-05-05T01:32:32.092Z,15.55
2023-05-05T01:35:02.744Z,15.57
2023-05-05T01:37:38.174Z,15.56
2023-05-05T01:40:08.229Z,15.58
2023-05-05T01:42:38.029Z,15.42
2023-05-05T01:45:08.202Z,15.43
2023-05-05T01:47:37.922Z,15.44
2023-05-05T01:50:08.259Z,15.41
2023-05-05T01:52:36.195Z,15.41
2023-05-05T01:55:04.413Z,15.41
2023-05-05T01:57:31.954Z,15.34
2023-05-05T01:59:59.524Z,15.19
2023-05-05T02:02:28.348Z,15.20
2023-05-05T02:04:57.353Z,15.27
2023-05-05T02:07:24.321Z,15.36
2023-05-05T02:09:52.838Z,15.32
2023-05-05T02:12:20.587Z,15.24
2023-05-05T02:14:47.888Z,15.26
2023-05-05T02:17:16.058Z,15.35
2023-05-05T02:19:45.896Z,15.16
2023-05-05T02:22:12.400Z,15.15
2023-05-05T02:24:38.952Z,15.12
2023-05-05T02:27:08.037Z,15.12
2023-05-05T02:29:50.343Z,15.07
2023-05-05T02:32:22.710Z,14.94
2023-05-05T02:34:51.462Z,14.96
2023-05-05T02:37:23.079Z,15.07
2023-05-05T02:39:58.884Z,15.08
2023-05-05T02:42:30.028Z,15.11
2023-05-05T02:44:59.852Z,15.13
2023-05-05T02:47:38.155Z,15.07
2023-05-05T02:50:05.937Z,15.04
2023-05-05T02:52:33.387Z,14.94
2023-05-05T02:55:00.800Z,15.01
2023-05-05T02:57:52.290Z,14.86
2023-05-05T03:00:28.120Z,14.82
2023-05-05T03:03:16.364Z,14.71
2023-05-05T03:05:51.467Z,14.55
2023-05-05T03:08:26.853Z,14.64
2023-05-05T03:11:00.696Z,14.61
2023-05-05T03:13:29.134Z,14.53
2023-05-05T03:15:58.480Z,14.39
2023-05-05T03:18:27.193Z,14.36
2023-05-05T03:20:54.094Z,14.45
2023-05-05T03:23:20.920Z,14.37
2023-05-05T03:25:49.295Z,14.42
2023-05-05T03:28:16.418Z,14.44
2023-05-05T03:30:43.248Z,14.34
2023-05-05T03:33:12.547Z,14.40
2023-05-05T03:35:39.000Z,14.44
2023-05-05T03:38:05.642Z,14.38
2023-05-05T03:40:42.968Z,14.29
2023-05-05T03:43:10.690Z,14.18
2023-05-05T03:45:37.144Z,14.15
2023-05-05T03:48:03.852Z,14.17
2023-05-05T03:50:30.366Z,14.16
2023-05-05T03:52:56.771Z,14.11
2023-05-05T03:55:23.203Z,14.12
2023-05-05T03:57:49.631Z,14.05
2023-05-05T04:00:16.413Z,14.08
2023-05-05T04:02:43.604Z,14.18
2023-05-05T04:05:10.286Z,14.12
2023-05-05T04:07:36.777Z,14.17
2023-05-05T04:10:03.354Z,14.13
2023-05-05T04:12:29.883Z,14.11
2023-05-05T04:14:56.400Z,14.12
2023-05-05T04:17:22.853Z,14.14
2023-05-05T04:19:49.385Z,14.10
2023-05-05T04:22:15.805Z,14.07
2023-05-05T04:24:42.240Z,14.05
2023-05-05T04:27:08.724Z,14.07
2023-05-05T04:29:35.245Z,14.08
2023-05-05T04:32:01.687Z,13.92
2023-05-05T04:34:28.145Z,13.97
2023-05-05T04:36:54.581Z,14.14
2023-05-05T04:39:21.664Z,14.12
2023-05-05T04:41:48.050Z,14.11
2023-05-05T04:44:14.468Z,14.11
2023-05-05T04:46:41.476Z,14.14
2023-05-05T04:49:09.171Z,14.12
2023-05-05T04:51:35.650Z,14.17
2023-05-05T04:54:02.109Z,14.15
2023-05-05T04:56:31.356Z,14.19
2023-05-05T04:58:57.788Z,14.15
2023-05-05T05:01:24.286Z,14.16
2023-05-05T05:03:51.159Z,14.13
2023-05-05T05:06:17.595Z,14.20
2023-05-05T05:08:44.019Z,14.20
2023-05-05T05:11:10.544Z,14.30
2023-05-05T05:13:37.012Z,14.27
2023-05-05T05:16:03.650Z,14.22
2023-05-05T05:18:30.227Z,14.28
2023-05-05T05:20:56.689Z,14.28
2023-05-05T05:23:23.240Z,14.37
2023-05-05T05:25:49.862Z,14.34
2023-05-05T05:28:16.324Z,14.33
2023-05-05T05:30:42.805Z,14.39
2023-05-05T05:33:09.416Z,14.37
2023-05-05T05:35:36.066Z,14.27
2023-05-05T05:38:02.537Z,14.29
2023-05-05T05:40:28.942Z,14.25
2023-05-05T05:42:55.502Z,14.29
2023-05-05T05:45:21.984Z,14.34
2023-05-05T05:47:49.128Z,14.39
2023-05-05T05:50:15.770Z,14.46
2023-05-05T05:52:42.228Z,14.45
2023-05-05T05:55:09.290Z,14.47
2023-05-05T05:57:35.933Z,14.51
2023-05-05T06:00:02.543Z,14.54
2023-05-05T06:02:29.237Z,14.55
2023-05-05T06:04:55.755Z,14.48
2023-05-05T06:07:22.271Z,14.66
2023-05-05T06:09:48.712Z,14.72
2023-05-05T06:12:15.294Z,14.79
2023-05-05T06:14:41.836Z,14.57
2023-05-05T06:17:08.313Z,14.75
2023-05-05T06:19:35.196Z,14.79
2023-05-05T06:22:01.627Z,14.97
2023-05-05T06:24:28.048Z,14.97
2023-05-05T06:26:54.508Z,15.15
2023-05-05T06:29:22.314Z,15.06
2023-05-05T06:31:48.792Z,15.21
2023-05-05T06:34:15.360Z,15.40
2023-05-05T06:36:41.916Z,15.57
2023-05-05T06:39:08.489Z,15.80
2023-05-05T06:41:34.936Z,15.99
2023-05-05T06:44:01.864Z,16.06
2023-05-05T06:46:28.498Z,16.56
2023-05-05T06:48:55.064Z,17.15
2023-05-05T06:51:22.703Z,17.18
2023-05-05T06:53:49.267Z,17.53
2023-05-05T06:56:15.869Z,17.07
2023-05-05T06:58:42.562Z,17.17
2023-05-05T07:01:09.643Z,16.90
2023-05-05T07:03:36.175Z,17.48
2023-05-05T07:06:03.657Z,18.03
2023-05-05T07:08:30.097Z,18.37
2023-05-05T07:10:57.752Z,18.52
2023-05-05T07:13:24.186Z,19.04
2023-05-05T07:15:50.781Z,19.00
2023-05-05T07:18:17.289Z,19.21
2023-05-05T07:20:44.633Z,19.13
2023-05-05T07:23:11.337Z,19.35
2023-05-05T07:25:38.185Z,19.34
2023-05-05T07:28:05.029Z,19.83
2023-05-05T07:30:31.543Z,20.61
2023-05-05T07:32:58.327Z,20.73
2023-05-05T07:35:24.829Z,21.16
2023-05-05T07:37:51.487Z,20.09
2023-05-05T07:40:17.898Z,20.67
2023-05-05T07:42:44.469Z,21.17
2023-05-05T07:45:11.146Z,21.45
2023-05-05T07:47:37.768Z,21.38
2023-05-05T07:50:05.048Z,20.98
2023-05-05T07:52:44.993Z,21.57
2023-05-05T07:55:14.715Z,21.83
2023-05-05T07:57:41.500Z,21.69
2023-05-05T08:00:09.438Z,21.86
2023-05-05T08:02:36.301Z,21.94
2023-05-05T08:05:02.740Z,22.21
2023-05-05T08:07:29.282Z,22.31
2023-05-05T08:09:55.808Z,21.73
2023-05-05T08:12:22.273Z,22.06
2023-05-05T08:14:48.737Z,23.01
2023-05-05T08:17:15.179Z,22.03
2023-05-05T08:19:42.651Z,22.27
2023-05-05T08:22:09.085Z,21.91
2023-05-05T08:24:35.764Z,22.95
2023-05-05T08:27:02.631Z,23.28
2023-05-05T08:29:29.030Z,22.86
2023-05-05T08:31:55.627Z,21.98
2023-05-05T08:34:22.120Z,22.70
2023-05-05T08:36:50.366Z,23.17
2023-05-05T08:39:17.229Z,23.81
2023-05-05T08:41:44.044Z,24.11
2023-05-05T08:44:10.979Z,24.74
2023-05-05T08:46:39.144Z,23.40
2023-05-05T08:49:07.408Z,22.27
2023-05-05T08:51:42.065Z,23.03
2023-05-05T08:54:14.504Z,23.78
2023-05-05T08:56:41.885Z,23.61
2023-05-05T08:59:11.351Z,22.16
2023-05-05T09:01:38.246Z,21.16
2023-05-05T09:04:04.871Z,20.87
2023-05-05T09:06:33.875Z,21.48
2023-05-05T09:09:01.394Z,21.66
2023-05-05T09:11:28.225Z,21.67
2023-05-05T09:13:55.763Z,21.54
2023-05-05T09:16:22.575Z,21.53
2023-05-05T09:18:49.159Z,21.23
2023-05-05T09:21:22.421Z,21.05
2023-05-05T09:24:10.071Z,21.00
2023-05-05T09:26:38.913Z,20.75
2023-05-05T09:29:06.065Z,20.28
2023-05-05T09:31:34.036Z,20.83
2023-05-05T09:34:01.289Z,20.26
2023-05-05T09:36:44.810Z,20.29
2023-05-05T09:39:11.273Z,20.64
2023-05-05T09:41:39.572Z,20.58
2023-05-05T09:44:06.304Z,20.15
2023-05-05T09:46:33.252Z,19.73
2023-05-05T09:49:23.613Z,19.85
2023-05-05T09:51:50.144Z,19.80
2023-05-05T09:54:22.483Z,20.08
2023-05-05T09:56:49.025Z,20.31
2023-05-05T09:59:15.516Z,20.11
2023-05-05T10:01:43.783Z,19.73
2023-05-05T10:04:23.068Z,19.88
2023-05-05T10:06:49.659Z,19.62
2023-05-05T10:09:16.379Z,19.34
2023-05-05T10:11:46.085Z,19.52
2023-05-05T10:14:17.872Z,19.57
2023-05-05T10:16:55.157Z,19.57
2023-05-05T10:19:24.206Z,19.98
2023-05-05T10:21:52.329Z,19.96
2023-05-05T10:24:35.412Z,19.95
2023-05-05T10:27:07.376Z,19.79
2023-05-05T10:29:39.143Z,19.77
2023-05-05T10:32:47.455Z,19.85
2023-05-05T10:35:07.637Z,19.51
2023-05-05T10:37:37.432Z,19.88
2023-05-05T10:40:04.638Z,19.94
2023-05-05T10:42:32.189Z,19.83
2023-05-05T10:44:58.654Z,19.45
2023-05-05T10:47:27.911Z,19.80
2023-05-05T10:50:00.487Z,19.62
2023-05-05T10:52:55.861Z,19.57
2023-05-05T10:55:35.522Z,19.30
2023-05-05T10:58:01.979Z,18.95
2023-05-05T11:00:40.397Z,18.97
2023-05-05T11:03:19.412Z,18.95
2023-05-05T11:06:04.341Z,18.96
2023-05-05T11:08:32.646Z,18.68
2023-05-05T11:11:00.041Z,18.61
2023-05-05T11:13:26.664Z,17.89
2023-05-05T11:15:57.451Z,17.11
2023-05-05T11:18:43.262Z,16.27
2023-05-05T11:21:17.495Z,15.97
2023-05-05T11:23:46.511Z,15.72
2023-05-05T11:26:14.141Z,15.59
2023-05-05T11:29:10.282Z,15.62
2023-05-05T11:31:36.801Z,15.47
2023-05-05T11:34:26.863Z,15.62
2023-05-05T11:36:57.344Z,15.71
2023-05-05T11:39:34.278Z,15.65
2023-05-05T11:42:25.905Z,15.78
2023-05-05T11:44:53.565Z,15.83
2023-05-05T11:47:19.980Z,15.94
2023-05-05T11:49:46.505Z,15.55
2023-05-05T11:52:14.265Z,15.75
2023-05-05T11:54:42.088Z,15.84
2023-05-05T11:57:09.056Z,15.65
2023-05-05T11:59:49.620Z,15.52
2023-05-05T12:02:17.205Z,15.77
2023-05-05T12:04:43.748Z,15.85
2023-05-05T12:07:21.624Z,15.54
2023-05-05T12:09:49.709Z,15.54
2023-05-05T12:12:17.031Z,15.50
2023-05-05T12:14:52.479Z,15.60
2023-05-05T12:17:23.192Z,15.62
2023-05-05T12:19:54.490Z,15.85
2023-05-05T12:22:26.265Z,16.20
2023-05-05T12:24:55.089Z,16.20
2023-05-05T12:27:22.006Z,16.16
2023-05-05T12:29:48.694Z,16.09
2023-05-05T12:32:25.843Z,16.05
2023-05-05T12:34:57.583Z,15.81
2023-05-05T12:37:26.184Z,15.91
2023-05-05T12:39:55.094Z,16.00
2023-05-05T12:42:22.453Z,15.86
2023-05-05T12:44:49.222Z,15.85
2023-05-05T12:47:30.380Z,16.07
2023-05-05T12:49:56.884Z,15.91
2023-05-05T12:52:23.540Z,15.78
2023-05-05T12:54:54.835Z,15.91
2023-05-05T12:57:22.325Z,15.62
2023-05-05T12:59:49.393Z,15.80
2023-05-05T13:02:16.420Z,15.71
2023-05-05T13:04:50.294Z,15.60
2023-05-05T13:07:17.899Z,15.79
2023-05-05T13:09:44.679Z,15.97
2023-05-05T13:12:14.316Z,15.86
2023-05-05T13:14:41.541Z,16.00
2023-05-05T13:17:08.406Z,16.09
2023-05-05T13:19:42.110Z,15.90
2023-05-05T13:22:12.828Z,15.83
2023-05-05T13:24:51.029Z,15.88
2023-05-05T13:27:19.917Z,16.04
2023-05-05T13:29:46.686Z,16.11
2023-05-05T13:32:13.741Z,16.06
2023-05-05T13:34:40.240Z,15.57
2023-05-05T13:37:06.776Z,15.77
2023-05-05T13:39:33.306Z,15.83
2023-05-05T13:42:00.436Z,15.82
2023-05-05T13:44:26.860Z,15.97
2023-05-05T13:46:53.695Z,16.03
2023-05-05T13:49:20.306Z,15.99
2023-05-05T13:51:47.128Z,15.99
2023-05-05T13:54:14.077Z,15.83
2023-05-05T13:56:40.759Z,15.99
2023-05-05T13:59:07.242Z,15.92
2023-05-05T14:01:33.779Z,16.10
2023-05-05T14:04:02.724Z,16.02
2023-05-05T14:06:31.126Z,15.89
2023-05-05T14:08:57.594Z,15.61
2023-05-05T14:11:24.313Z,15.46
2023-05-05T14:13:51.945Z,15.72
2023-05-05T14:16:18.564Z,15.80
2023-05-05T14:18:45.655Z,15.78
2023-05-05T14:21:12.192Z,15.86
2023-05-05T14:23:38.658Z,15.87
2023-05-05T14:26:05.298Z,15.91
2023-05-05T14:28:31.817Z,16.01
2023-05-05T14:30:58.319Z,16.31
2023-05-05T14:33:24.822Z,16.36
2023-05-05T14:35:51.495Z,16.25
2023-05-05T14:38:18.160Z,16.08
2023-05-05T14:40:44.707Z,16.19
2023-05-05T14:43:11.199Z,16.23
2023-05-05T14:45:37.744Z,16.08
2023-05-05T14:48:04.375Z,15.94
2023-05-05T14:50:30.950Z,15.95
2023-05-05T14:52:57.420Z,16.06
2023-05-05T14:55:25.024Z,16.18
2023-05-05T14:57:51.941Z,16.46
2023-05-05T15:00:18.735Z,16.38
2023-05-05T15:02:45.481Z,17.04
2023-05-05T15:05:12.212Z,17.23
2023-05-05T15:07:39.997Z,17.61
2023-05-05T15:10:07.604Z,17.58
2023-05-05T15:12:34.276Z,17.24
2023-05-05T15:15:00.933Z,16.69
2023-05-05T15:17:27.344Z,16.93
2023-05-05T15:19:53.842Z,16.70
2023-05-05T15:22:20.327Z,16.85
2023-05-05T15:24:46.724Z,16.87
2023-05-05T15:27:13.479Z,16.75
2023-05-05T15:29:39.904Z,16.49
2023-05-05T15:32:06.420Z,16.39
2023-05-05T15:34:32.956Z,16.61
2023-05-05T15:36:59.419Z,16.98
2023-05-05T15:39:25.860Z,16.86
2023-05-05T15:41:52.379Z,16.88
2023-05-05T15:44:18.789Z,16.90
2023-05-05T15:46:45.287Z,16.85
2023-05-05T15:49:11.810Z,16.73
2023-05-05T15:51:38.351Z,16.80
2023-05-05T15:54:05.531Z,16.88
2023-05-05T15:56:32.352Z,16.78
2023-05-05T15:58:58.766Z,16.72
2023-05-05T16:01:25.294Z,16.58
2023-05-05T16:03:51.818Z,16.63
2023-05-05T16:06:18.322Z,16.47
2023-05-05T16:08:47.617Z,16.10
2023-05-05T16:11:14.081Z,16.29
2023-05-05T16:13:40.569Z,16.22
2023-05-05T16:16:07.133Z,16.22
2023-05-05T16:18:33.705Z,16.29
2023-05-05T16:21:00.749Z,16.30
2023-05-05T16:23:27.300Z,16.22
2023-05-05T16:25:53.799Z,16.39
2023-05-05T16:28:20.227Z,16.14
2023-05-05T16:30:46.773Z,16.08
2023-05-05T16:33:13.190Z,16.00
2023-05-05T16:35:39.621Z,15.94
2023-05-05T16:38:06.124Z,15.98
2023-05-05T16:40:32.573Z,15.93
2023-05-05T16:42:59.052Z,15.88
2023-05-05T16:45:25.462Z,16.14
2023-05-05T16:47:51.928Z,16.33
2023-05-05T16:50:18.447Z,16.30
2023-05-05T16:52:44.884Z,16.20
2023-05-05T16:55:11.593Z,16.34
2023-05-05T16:57:38.378Z,16.38
2023-05-05T17:00:09.470Z,16.29
2023-05-05T17:02:36.295Z,16.23
2023-05-05T17:05:02.877Z,16.06
2023-05-05T17:07:29.401Z,16.15
2023-05-05T17:09:55.902Z,16.22
2023-05-05T17:12:22.417Z,16.17
2023-05-05T17:14:48.905Z,15.91
2023-05-05T17:17:15.497Z,15.97
2023-05-05T17:19:42.717Z,16.13
2023-05-05T17:22:09.156Z,16.04
2023-05-05T17:24:35.637Z,15.78
2023-05-05T17:27:02.095Z,15.87
2023-05-05T17:29:28.547Z,15.89
2023-05-05T17:31:55.062Z,15.80
2023-05-05T17:34:22.027Z,15.93
2023-05-05T17:36:48.516Z,15.99
2023-05-05T17:39:14.997Z,15.98
2023-05-05T17:41:42.379Z,15.78
2023-05-05T17:44:08.822Z,15.82
2023-05-05T17:46:35.423Z,15.82
2023-05-05T17:49:02.761Z,15.99
2023-05-05T17:51:29.236Z,15.97
2023-05-05T17:53:55.611Z,15.85
2023-05-05T17:56:22.187Z,15.97
2023-05-05T17:58:48.921Z,15.72
2023-05-05T18:01:26.049Z,15.85
2023-05-05T18:03:52.867Z,15.74
2023-05-05T18:06:19.359Z,15.66
2023-05-05T18:08:45.877Z,15.73
2023-05-05T18:11:12.374Z,15.83
2023-05-05T18:13:39.452Z,15.65
2023-05-05T18:16:06.521Z,15.58
2023-05-05T18:18:33.112Z,15.56
2023-05-05T18:20:59.683Z,15.58
2023-05-05T18:23:26.270Z,15.50
2023-05-05T18:25:52.651Z,15.36
2023-05-05T18:28:19.137Z,15.28
2023-05-05T18:30:45.626Z,15.20
2023-05-05T18:33:12.083Z,15.16
2023-05-05T18:35:38.568Z,15.12
2023-05-05T18:38:05.393Z,15.02
2023-05-05T18:40:31.823Z,15.07
2023-05-05T18:42:58.334Z,15.03
2023-05-05T18:45:24.882Z,15.02
2023-05-05T18:47:51.391Z,15.03
2023-05-05T18:50:18.001Z,14.88
2023-05-05T18:52:44.409Z,14.88
2023-05-05T18:55:11.293Z,14.82
2023-05-05T18:57:38.049Z,14.75
2023-05-05T19:00:04.909Z,14.75
2023-05-05T19:02:31.474Z,14.64
2023-05-05T19:04:58.007Z,14.51
2023-05-05T19:07:34.382Z,14.42
2023-05-05T19:10:03.651Z,14.37
2023-05-05T19:12:30.215Z,14.39
2023-05-05T19:14:56.823Z,14.42
2023-05-05T19:17:23.288Z,14.46
2023-05-05T19:19:50.016Z,14.41
2023-05-05T19:22:17.626Z,14.42
2023-05-05T19:24:44.068Z,14.26
2023-05-05T19:27:15.433Z,14.19
2023-05-05T19:29:43.040Z,14.26
2023-05-05T19:32:09.575Z,14.23
2023-05-05T19:34:36.416Z,14.24
2023-05-05T19:37:02.870Z,14.23
2023-05-05T19:39:29.349Z,14.06
2023-05-05T19:41:55.814Z,14.15
2023-05-05T19:44:22.769Z,14.00
2023-05-05T19:46:49.257Z,14.03
2023-05-05T19:49:16.436Z,13.92
2023-05-05T19:51:43.734Z,13.91
2023-05-05T19:54:10.286Z,13.86
2023-05-05T19:56:36.791Z,13.90
2023-05-05T19:59:05.297Z,14.00
2023-05-05T20:01:33.052Z,14.00
2023-05-05T20:04:00.054Z,13.89
2023-05-05T20:06:26.977Z,13.92
2023-05-05T20:08:54.744Z,13.79
2023-05-05T20:11:21.926Z,13.63
2023-05-05T20:13:49.928Z,13.71
2023-05-05T20:16:16.669Z,13.76
2023-05-05T20:18:43.517Z,13.74
2023-05-05T20:21:10.050Z,13.66
2023-05-05T20:23:37.089Z,13.61
2023-05-05T20:26:03.742Z,13.63
2023-05-05T20:28:31.686Z,13.56
2023-05-05T20:30:58.284Z,13.53
2023-05-05T20:33:24.834Z,13.51
2023-05-05T20:35:51.294Z,13.49
2023-05-05T20:38:17.972Z,13.57
2023-05-05T20:40:44.461Z,13.56
2023-05-05T20:43:10.962Z,13.47
2023-05-05T20:45:37.480Z,13.57
2023-05-05T20:48:05.332Z,13.51
2023-05-05T20:50:32.137Z,13.45
2023-05-05T20:52:58.775Z,13.48
2023-05-05T20:55:25.633Z,13.31
2023-05-05T20:57:52.101Z,13.30
2023-05-05T21:00:23.615Z,13.31
2023-05-05T21:02:50.334Z,13.44
2023-05-05T21:05:16.926Z,13.51
2023-05-05T21:07:44.547Z,13.46
2023-05-05T21:10:11.271Z,13.42
2023-05-05T21:12:37.974Z,13.36
2023-05-05T21:15:04.933Z,13.27
2023-05-05T21:17:31.384Z,13.32
2023-05-05T21:19:57.925Z,13.37
2023-05-05T21:22:24.419Z,13.18
2023-05-05T21:24:51.208Z,13.17
2023-05-05T21:27:17.778Z,13.33
2023-05-05T21:29:44.176Z,13.35
2023-05-05T21:32:11.891Z,13.26
2023-05-05T21:34:39.204Z,13.15
2023-05-05T21:37:06.490Z,13.18
2023-05-05T21:39:33.619Z,13.16
2023-05-05T21:42:00.886Z,13.11
2023-05-05T21:44:28.296Z,13.11
2023-05-05T21:46:55.350Z,13.11
2023-05-05T21:49:22.112Z,13.16
2023-05-05T21:51:48.599Z,13.14
2023-05-05T21:54:15.254Z,13.19
2023-05-05T21:56:41.752Z,13.21
2023-05-05T21:59:08.251Z,13.03
2023-05-05T22:01:35.309Z,13.13
2023-05-05T22:04:01.890Z,13.20
2023-05-05T22:06:28.388Z,13.06
2023-05-05T22:08:56.596Z,13.14
2023-05-05T22:11:23.152Z,13.13
2023-05-05T22:13:49.779Z,13.11
2023-05-05T22:16:19.127Z,13.15
2023-05-05T22:18:46.063Z,13.01
2023-05-05T22:21:12.614Z,12.93
2023-05-05T22:23:41.435Z,13.07
2023-05-05T22:26:08.705Z,12.97
2023-05-05T22:28:35.262Z,12.90
2023-05-05T22:31:01.978Z,12.92
2023-05-05T22:33:28.514Z,12.93
2023-05-05T22:35:54.997Z,12.97
2023-05-05T22:38:21.483Z,12.84
2023-05-05T22:40:47.958Z,12.89
2023-05-05T22:43:14.467Z,12.90
2023-05-05T22:45:41.457Z,12.92
2023-05-05T22:48:07.912Z,12.86
2023-05-05T22:50:35.314Z,13.05
2023-05-05T22:53:01.758Z,12.94
2023-05-05T22:55:28.326Z,13.06
2023-05-05T22:57:54.806Z,13.01
2023-05-05T23:00:21.245Z,13.02
2023-05-05T23:02:47.808Z,12.99
2023-05-05T23:05:14.295Z,12.96
2023-05-05T23:07:40.814Z,12.89
2023-05-05T23:10:07.738Z,13.00
2023-05-05T23:12:34.272Z,12.92
2023-05-05T23:15:00.903Z,12.91
2023-05-05T23:17:27.344Z,12.92
2023-05-05T23:19:53.910Z,12.74
2023-05-05T23:22:20.388Z,12.85
2023-05-05T23:24:46.791Z,12.93
2023-05-05T23:27:13.347Z,13.01
2023-05-05T23:29:39.806Z,12.90
2023-05-05T23:32:06.486Z,12.81
2023-05-05T23:34:32.974Z,12.77
2023-05-05T23:36:59.414Z,12.74
2023-05-05T23:39:25.822Z,12.75
2023-05-05T23:41:52.431Z,12.70
2023-05-05T23:44:18.845Z,12.75
2023-05-05T23:46:45.487Z,12.86
2023-05-05T23:49:11.924Z,12.70
2023-05-05T23:51:38.351Z,12.77
2023-05-05T23:54:04.836Z,12.76
2023-05-05T23:56:31.283Z,12.84
2023-05-05T23:58:57.802Z,12.87
